createdAt,value
2023-01-04T00:01:33.837Z,71.10
2023-01-04T00:04:01.921Z,70.37
2023-01-04T00:06:31.335Z,73.27
2023-01-04T00:09:00.670Z,80.03
2023-01-04T00:11:28.923Z,82.00
2023-01-04T00:13:59.245Z,70.43
2023-01-04T00:16:28.807Z,78.60
2023-01-04T00:18:57.203Z,77.03
2023-01-04T00:21:27.051Z,79.47
2023-01-04T00:23:58.037Z,76.67
2023-01-04T00:26:28.026Z,66.50
2023-01-04T00:28:56.999Z,73.07
2023-01-04T00:31:25.895Z,71.67
2023-01-04T00:33:55.492Z,69.37
2023-01-04T00:36:23.860Z,70.80
2023-01-04T00:39:07.756Z,70.03
2023-01-04T00:44:26.876Z,62.07
2023-01-04T00:46:54.897Z,57.17
2023-01-04T00:49:23.471Z,46.87
2023-01-04T00:51:51.829Z,44.60
2023-01-04T00:54:20.221Z,42.70
2023-01-04T00:56:49.947Z,43.10
2023-01-04T00:59:20.484Z,62.00
2023-01-04T01:01:49.098Z,59.70
2023-01-04T01:04:19.308Z,51.23
2023-01-04T01:06:47.824Z,50.93
2023-01-04T01:09:16.565Z,52.73
2023-01-04T01:11:44.813Z,49.73
2023-01-04T01:14:18.643Z,51.23
2023-01-04T01:16:57.327Z,50.50
2023-01-04T01:19:27.169Z,47.27
2023-01-04T01:21:57.168Z,44.33
2023-01-04T01:24:25.241Z,39.03
2023-01-04T01:26:53.579Z,38.90
2023-01-04T01:29:22.952Z,35.33
2023-01-04T01:31:51.000Z,32.50
2023-01-04T01:34:18.939Z,38.97
2023-01-04T01:36:46.983Z,41.20
2023-01-04T01:39:14.897Z,49.40
2023-01-04T01:41:42.835Z,48.57
2023-01-04T01:44:44.040Z,56.70
2023-01-04T01:47:15.953Z,45.90
2023-01-04T01:49:46.309Z,51.00
2023-01-04T01:52:19.475Z,44.60
2023-01-04T01:54:51.020Z,37.50
2023-01-04T01:57:25.130Z,27.57
2023-01-04T01:59:59.158Z,24.63
2023-01-04T02:02:28.818Z,20.27
2023-01-04T02:05:03.337Z,19.90
2023-01-04T02:07:31.464Z,16.00
2023-01-04T02:10:00.105Z,16.33
2023-01-04T02:12:28.037Z,15.90
2023-01-04T02:14:55.997Z,16.10
2023-01-04T02:17:35.605Z,16.20
2023-01-04T02:20:44.063Z,16.07
2023-01-04T02:23:55.857Z,15.60
2023-01-04T02:27:03.211Z,15.67
2023-01-04T02:30:05.518Z,16.23
2023-01-04T02:32:47.507Z,16.77
2023-01-04T02:35:25.837Z,16.27
2023-01-04T02:38:02.882Z,16.57
2023-01-04T02:40:42.006Z,16.07
2023-01-04T02:43:36.273Z,16.17
2023-01-04T02:46:09.215Z,16.10
2023-01-04T02:48:57.207Z,16.83
2023-01-04T02:51:29.202Z,17.37
2023-01-04T02:53:59.096Z,17.20
2023-01-04T02:56:37.652Z,16.93
2023-01-04T02:59:16.981Z,17.90
2023-01-04T03:02:11.886Z,16.73
2023-01-04T03:05:11.119Z,15.90
2023-01-04T03:07:47.028Z,16.90
2023-01-04T03:10:22.635Z,16.30
2023-01-04T03:12:54.791Z,16.57
2023-01-04T03:15:25.081Z,17.10
2023-01-04T03:17:57.852Z,18.10
2023-01-04T03:20:31.006Z,17.23
2023-01-04T03:23:23.205Z,17.37
2023-01-04T03:26:13.314Z,16.67
2023-01-04T03:29:01.291Z,16.00
2023-01-04T03:31:51.630Z,17.27
2023-01-04T03:34:37.642Z,16.83
2023-01-04T03:37:16.252Z,17.40
2023-01-04T03:40:17.650Z,16.27
2023-01-04T03:43:07.714Z,16.17
2023-01-04T03:46:01.952Z,16.00
2023-01-04T03:48:37.844Z,16.50
2023-01-04T03:51:15.656Z,16.17
2023-01-04T03:53:55.616Z,16.60
2023-01-04T03:56:28.514Z,15.60
2023-01-04T03:58:56.907Z,15.30
2023-01-04T04:01:27.322Z,15.83
2023-01-04T04:04:14.015Z,15.77
2023-01-04T04:06:59.734Z,15.83
2023-01-04T04:09:29.008Z,15.87
2023-01-04T04:11:56.928Z,15.13
2023-01-04T04:14:24.907Z,16.10
2023-01-04T04:16:52.971Z,16.50
2023-01-04T04:19:22.103Z,14.80
2023-01-04T04:21:50.059Z,14.83
2023-01-04T04:24:20.271Z,15.27
2023-01-04T04:26:49.528Z,15.30
2023-01-04T04:29:18.943Z,15.27
2023-01-04T04:31:46.856Z,15.90
2023-01-04T04:34:14.873Z,15.77
2023-01-04T04:36:42.838Z,15.97
2023-01-04T04:39:22.195Z,15.57
2023-01-04T04:41:54.482Z,16.00
2023-01-04T04:45:02.952Z,14.93
2023-01-04T04:47:33.627Z,14.70
2023-01-04T04:50:02.648Z,15.77
2023-01-04T04:52:31.306Z,15.80
2023-01-04T04:55:02.775Z,16.03
2023-01-04T04:57:34.972Z,15.87
2023-01-04T05:00:04.393Z,15.00
2023-01-04T05:02:33.903Z,16.03
2023-01-04T05:05:02.460Z,15.13
2023-01-04T05:07:30.416Z,16.33
2023-01-04T05:09:58.933Z,15.60
2023-01-04T05:12:44.424Z,15.13
2023-01-04T05:15:13.755Z,15.10
2023-01-04T05:17:41.667Z,15.33
2023-01-04T05:20:10.807Z,16.37
2023-01-04T05:22:38.719Z,16.03
2023-01-04T05:25:08.283Z,16.70
2023-01-04T05:27:37.351Z,15.60
2023-01-04T05:30:23.292Z,16.27
2023-01-04T05:32:52.562Z,16.27
2023-01-04T05:35:20.581Z,15.50
2023-01-04T05:37:48.787Z,16.03
2023-01-04T05:40:16.848Z,16.83
2023-01-04T05:42:44.986Z,16.40
2023-01-04T05:45:13.089Z,16.77
2023-01-04T05:47:52.377Z,17.37
2023-01-04T05:50:24.703Z,19.03
2023-01-04T05:52:53.171Z,23.23
2023-01-04T05:55:25.408Z,21.67
2023-01-04T05:57:55.192Z,19.33
2023-01-04T06:00:23.027Z,18.20
2023-01-04T06:02:52.624Z,16.37
2023-01-04T06:05:22.284Z,17.00
2023-01-04T06:07:50.209Z,16.27
2023-01-04T06:10:19.150Z,17.13
2023-01-04T06:12:48.036Z,16.73
2023-01-04T06:15:16.216Z,17.53
2023-01-04T06:17:44.164Z,16.90
2023-01-04T06:20:12.839Z,16.43
2023-01-04T06:22:43.349Z,17.07
2023-01-04T06:25:11.805Z,16.37
2023-01-04T06:27:39.751Z,16.90
2023-01-04T06:30:09.186Z,17.03
2023-01-04T06:32:37.626Z,16.30
2023-01-04T06:35:06.426Z,17.33
2023-01-04T06:37:35.695Z,17.80
2023-01-04T06:40:05.903Z,16.77
2023-01-04T06:42:48.604Z,17.03
2023-01-04T06:45:17.490Z,16.33
2023-01-04T06:47:45.546Z,15.97
2023-01-04T06:50:13.481Z,15.83
2023-01-04T06:52:42.113Z,17.00
2023-01-04T06:55:11.632Z,16.23
2023-01-04T06:57:39.619Z,15.67
2023-01-04T07:00:09.179Z,17.43
2023-01-04T07:02:37.755Z,16.30
2023-01-04T07:05:06.482Z,16.40
2023-01-04T07:07:35.537Z,15.60
2023-01-04T07:10:10.007Z,16.23
2023-01-04T07:12:40.146Z,16.27
2023-01-04T07:15:39.168Z,16.33
2023-01-04T07:17:56.993Z,15.40
2023-01-04T07:20:24.923Z,15.93
2023-01-04T07:22:53.103Z,14.67
2023-01-04T07:25:21.546Z,15.27
2023-01-04T07:27:53.913Z,15.33
2023-01-04T07:30:22.610Z,15.53
2023-01-04T07:32:52.236Z,15.40
2023-01-04T07:35:20.270Z,14.67
2023-01-04T07:37:53.776Z,15.70
2023-01-04T07:40:25.723Z,14.80
2023-01-04T07:42:59.358Z,15.10
2023-01-04T07:45:27.804Z,15.20
2023-01-04T07:47:55.821Z,14.67
2023-01-04T07:50:23.783Z,15.00
2023-01-04T07:52:51.763Z,15.03
2023-01-04T07:55:19.675Z,14.70
2023-01-04T07:57:47.550Z,14.70
2023-01-04T08:00:17.652Z,15.63
2023-01-04T08:02:45.738Z,15.70
2023-01-04T08:05:13.819Z,15.83
2023-01-04T08:07:41.715Z,14.40
2023-01-04T08:10:09.929Z,15.00
2023-01-04T08:12:37.774Z,16.10
2023-01-04T08:15:06.819Z,15.10
2023-01-04T08:17:36.063Z,15.63
2023-01-04T08:20:04.261Z,14.63
2023-01-04T08:22:32.151Z,13.37
2023-01-04T08:25:00.248Z,14.50
2023-01-04T08:27:28.101Z,13.47
2023-01-04T08:29:55.945Z,14.17
2023-01-04T08:32:23.820Z,14.57
2023-01-04T08:34:54.246Z,15.10
2023-01-04T08:37:22.829Z,15.30
2023-01-04T08:39:50.760Z,15.63
2023-01-04T08:42:28.493Z,15.77
2023-01-04T08:45:02.294Z,15.67
2023-01-04T08:47:30.776Z,15.67
2023-01-04T08:50:04.766Z,18.50
2023-01-04T08:52:35.803Z,17.63
2023-01-04T08:55:10.111Z,17.17
2023-01-04T08:57:40.537Z,16.83
2023-01-04T09:00:09.944Z,16.30
2023-01-04T09:02:37.929Z,15.80
2023-01-04T09:05:08.466Z,16.50
2023-01-04T09:07:36.492Z,17.10
2023-01-04T09:10:04.693Z,18.87
2023-01-04T09:12:32.620Z,17.17
2023-01-04T09:15:00.483Z,16.63
2023-01-04T09:17:28.436Z,15.83
2023-01-04T09:19:56.555Z,14.77
2023-01-04T09:22:26.022Z,16.73
2023-01-04T09:24:54.162Z,15.20
2023-01-04T09:27:22.043Z,15.10
2023-01-04T09:29:50.245Z,15.10
2023-01-04T09:32:18.131Z,14.20
2023-01-04T09:34:46.155Z,14.37
2023-01-04T09:37:14.081Z,14.00
2023-01-04T09:39:43.439Z,15.10
2023-01-04T09:42:19.136Z,15.03
2023-01-04T09:47:45.312Z,15.57
2023-01-04T09:50:18.848Z,15.63
2023-01-04T09:53:04.197Z,15.43
2023-01-04T09:55:41.435Z,15.27
2023-01-04T09:58:21.527Z,15.70
2023-01-04T10:00:53.697Z,14.83
2023-01-04T10:03:25.994Z,13.43
2023-01-04T10:05:56.258Z,14.27
2023-01-04T10:08:24.258Z,14.83
2023-01-04T10:11:06.395Z,15.03
2023-01-04T10:13:48.137Z,14.30
2023-01-04T10:16:44.335Z,14.63
2023-01-04T10:22:26.234Z,13.50
2023-01-04T10:25:02.703Z,14.53
2023-01-04T10:27:47.162Z,13.30
2023-01-04T10:30:59.940Z,13.57
2023-01-04T10:33:49.914Z,14.30
2023-01-04T10:36:20.962Z,14.13
2023-01-04T10:38:57.796Z,13.40
2023-01-04T10:41:28.154Z,12.80
2023-01-04T10:44:12.180Z,13.50
2023-01-04T10:46:48.173Z,13.27
2023-01-04T10:49:22.315Z,14.73
2023-01-04T10:51:59.251Z,13.80
2023-01-04T10:54:34.655Z,13.90
2023-01-04T10:57:08.716Z,14.57
2023-01-04T10:59:44.476Z,13.43
2023-01-04T11:02:20.639Z,13.40
2023-01-04T11:04:57.957Z,13.33
2023-01-04T11:07:30.464Z,13.80
2023-01-04T11:10:02.693Z,13.40
2023-01-04T11:12:30.857Z,14.70
2023-01-04T11:15:00.482Z,13.90
2023-01-04T11:17:29.173Z,17.17
2023-01-04T11:19:57.116Z,23.77
2023-01-04T11:22:29.422Z,23.50
2023-01-04T11:27:54.067Z,15.70
2023-01-04T11:30:26.074Z,15.57
2023-01-04T11:33:01.011Z,14.50
2023-01-04T11:35:42.804Z,14.00
2023-01-04T11:38:13.491Z,14.13
2023-01-04T11:40:42.297Z,13.43
2023-01-04T11:43:18.578Z,14.53
2023-01-04T11:45:59.919Z,14.60
2023-01-04T11:48:41.013Z,12.67
2023-01-04T11:51:19.959Z,13.70
2023-01-04T11:53:57.290Z,13.13
2023-01-04T11:56:26.230Z,12.43
2023-01-04T11:59:22.640Z,13.93
2023-01-04T12:02:42.685Z,12.50
2023-01-04T12:05:26.165Z,11.87
2023-01-04T12:07:57.534Z,11.80
2023-01-04T12:10:28.609Z,12.37
2023-01-04T12:12:57.683Z,13.40
2023-01-04T12:15:33.944Z,11.57
2023-01-04T12:18:07.483Z,13.33
2023-01-04T12:20:37.152Z,13.33
2023-01-04T12:23:05.112Z,13.37
2023-01-04T12:25:41.877Z,13.00
2023-01-04T12:28:29.934Z,12.83
2023-01-04T12:31:30.347Z,12.80
2023-01-04T12:34:00.823Z,12.57
2023-01-04T12:37:05.286Z,11.93
2023-01-04T12:39:42.016Z,12.90
2023-01-04T12:42:17.773Z,12.33
2023-01-04T12:45:21.459Z,12.80
2023-01-04T12:48:14.560Z,12.00
2023-01-04T12:51:46.913Z,13.13
2023-01-04T12:54:24.715Z,13.20
2023-01-04T12:57:23.368Z,13.30
2023-01-04T12:59:56.011Z,14.60
2023-01-04T13:02:25.708Z,15.33
2023-01-04T13:05:16.907Z,14.60
2023-01-04T13:07:46.686Z,13.70
2023-01-04T13:10:28.056Z,13.73
2023-01-04T13:13:29.646Z,12.90
2023-01-04T13:16:15.082Z,13.43
2023-01-04T13:18:44.722Z,14.00
2023-01-04T13:21:16.585Z,14.60
2023-01-04T13:23:51.127Z,15.00
2023-01-04T13:26:34.438Z,14.20
2023-01-04T13:29:24.125Z,14.67
2023-01-04T13:31:55.502Z,13.30
2023-01-04T13:34:27.779Z,13.57
2023-01-04T13:37:01.937Z,14.00
2023-01-04T13:39:30.170Z,13.90
2023-01-04T13:42:00.095Z,14.37
2023-01-04T13:45:18.589Z,13.63
2023-01-04T13:47:43.499Z,14.40
2023-01-04T13:50:29.343Z,14.07
2023-01-04T13:53:06.884Z,13.70
2023-01-04T13:55:37.787Z,13.93
2023-01-04T13:58:16.636Z,13.93
2023-01-04T14:00:47.010Z,14.10
2023-01-04T14:03:25.818Z,13.57
2023-01-04T14:06:01.381Z,14.07
2023-01-04T14:08:35.334Z,12.67
2023-01-04T14:11:04.073Z,13.63
2023-01-04T14:13:33.331Z,13.47
2023-01-04T14:16:06.537Z,13.70
2023-01-04T14:18:34.409Z,14.07
2023-01-04T14:21:02.362Z,15.53
2023-01-04T14:23:34.498Z,14.20
2023-01-04T14:26:02.736Z,13.93
2023-01-04T14:28:47.005Z,12.97
2023-01-04T14:31:23.151Z,15.03
2023-01-04T14:33:53.542Z,13.33
2023-01-04T14:36:26.555Z,13.73
2023-01-04T14:39:02.263Z,14.40
2023-01-04T14:41:33.790Z,13.80
2023-01-04T14:44:10.988Z,13.43
2023-01-04T14:46:39.849Z,13.70
2023-01-04T14:49:07.796Z,14.63
2023-01-04T14:51:39.175Z,13.13
2023-01-04T14:54:07.492Z,15.87
2023-01-04T14:56:35.763Z,14.10
2023-01-04T14:59:03.694Z,14.20
2023-01-04T15:01:33.119Z,14.23
2023-01-04T15:04:01.261Z,16.90
2023-01-04T15:06:29.232Z,15.50
2023-01-04T15:08:57.153Z,14.93
2023-01-04T15:11:25.044Z,14.73
2023-01-04T15:13:53.135Z,14.00
2023-01-04T15:16:21.007Z,14.97
2023-01-04T15:18:50.325Z,14.90
2023-01-04T15:21:18.267Z,17.17
2023-01-04T15:23:46.161Z,17.13
2023-01-04T15:26:14.124Z,16.13
2023-01-04T15:28:42.002Z,16.83
2023-01-04T15:31:11.796Z,17.33
2023-01-04T15:33:40.227Z,16.70
2023-01-04T15:36:12.337Z,15.33
2023-01-04T15:38:40.307Z,15.20
2023-01-04T15:41:31.963Z,15.97
2023-01-04T15:43:58.871Z,15.23
2023-01-04T15:46:26.773Z,17.07
2023-01-04T15:48:54.750Z,17.63
2023-01-04T15:51:24.311Z,18.07
2023-01-04T15:53:53.650Z,18.43
2023-01-04T15:56:22.293Z,18.90
2023-01-04T15:58:54.770Z,16.93
2023-01-04T16:01:23.024Z,17.47
2023-01-04T16:03:54.018Z,17.77
2023-01-04T16:06:23.927Z,17.83
2023-01-04T16:08:53.066Z,20.03
2023-01-04T16:11:23.214Z,18.67
2023-01-04T16:13:53.494Z,17.70
2023-01-04T16:16:23.706Z,18.20
2023-01-04T16:18:53.033Z,18.57
2023-01-04T16:21:25.418Z,19.37
2023-01-04T16:24:00.113Z,19.37
2023-01-04T16:26:32.031Z,19.73
2023-01-04T16:29:00.836Z,20.73
2023-01-04T16:31:34.025Z,19.87
2023-01-04T16:34:02.090Z,20.40
2023-01-04T16:36:31.831Z,19.77
2023-01-04T16:38:59.717Z,29.20
2023-01-04T16:41:28.916Z,22.30
2023-01-04T16:43:58.966Z,19.63
2023-01-04T16:46:28.699Z,19.67
2023-01-04T16:48:58.979Z,19.87
2023-01-04T16:51:29.071Z,20.20
2023-01-04T16:54:19.940Z,20.23
2023-01-04T16:56:49.755Z,23.53
2023-01-04T16:59:20.433Z,24.43
2023-01-04T17:01:57.338Z,19.80
2023-01-04T17:04:26.244Z,19.30
2023-01-04T17:06:55.033Z,18.77
2023-01-04T17:09:24.284Z,20.67
2023-01-04T17:15:00.813Z,20.00
2023-01-04T17:17:35.301Z,22.03
2023-01-04T17:20:04.615Z,19.53
2023-01-04T17:22:34.660Z,18.53
2023-01-04T17:25:04.884Z,18.20
2023-01-04T17:27:32.800Z,19.57
2023-01-04T17:30:01.145Z,19.33
2023-01-04T17:32:29.047Z,19.30
2023-01-04T17:34:58.138Z,18.07
2023-01-04T17:37:26.267Z,19.17
2023-01-04T17:39:54.439Z,18.37
2023-01-04T17:42:24.143Z,19.73
2023-01-04T17:44:52.797Z,19.70
2023-01-04T17:47:20.806Z,20.60
2023-01-04T17:49:48.774Z,20.27
2023-01-04T17:52:22.027Z,20.73
2023-01-04T17:54:52.434Z,20.97
2023-01-04T17:57:23.065Z,21.53
2023-01-04T17:59:51.049Z,19.87
2023-01-04T18:02:19.008Z,18.87
2023-01-04T18:04:46.969Z,18.20
2023-01-04T18:07:14.868Z,18.60
2023-01-04T18:09:44.039Z,19.03
2023-01-04T18:12:12.012Z,19.63
2023-01-04T18:14:41.320Z,20.23
2023-01-04T18:17:09.430Z,22.20
2023-01-04T18:19:40.225Z,19.93
2023-01-04T18:22:09.479Z,20.13
2023-01-04T18:24:38.659Z,18.57
2023-01-04T18:27:25.426Z,18.30
2023-01-04T18:29:56.871Z,18.97
2023-01-04T18:32:26.097Z,18.87
2023-01-04T18:34:54.195Z,18.53
2023-01-04T18:37:22.485Z,18.87
2023-01-04T18:39:50.513Z,19.33
2023-01-04T18:42:18.502Z,19.30
2023-01-04T18:45:41.559Z,18.93
2023-01-04T18:48:10.868Z,19.03
2023-01-04T18:50:38.807Z,18.97
2023-01-04T18:53:06.775Z,19.87
2023-01-04T18:55:34.681Z,20.40
2023-01-04T18:58:02.534Z,21.37
2023-01-04T19:00:31.195Z,20.03
2023-01-04T19:02:59.563Z,22.53
2023-01-04T19:05:28.988Z,22.67
2023-01-04T19:07:56.964Z,23.13
2023-01-04T19:10:24.903Z,24.67
2023-01-04T19:12:52.768Z,30.30
2023-01-04T19:15:20.896Z,24.83
2023-01-04T19:17:48.741Z,22.77
2023-01-04T19:20:16.696Z,22.50
2023-01-04T19:22:45.981Z,21.00
2023-01-04T19:25:13.945Z,21.07
2023-01-04T19:27:41.826Z,23.33
2023-01-04T19:30:11.148Z,22.70
2023-01-04T19:32:38.999Z,20.93
2023-01-04T19:35:07.792Z,21.50
2023-01-04T19:37:35.681Z,20.83
2023-01-04T19:40:05.581Z,22.17
2023-01-04T19:42:33.447Z,21.03
2023-01-04T19:45:01.458Z,21.07
2023-01-04T19:47:29.419Z,20.57
2023-01-04T19:49:57.263Z,21.27
2023-01-04T19:52:25.189Z,21.47
2023-01-04T19:54:53.149Z,20.73
2023-01-04T19:57:22.407Z,19.83
2023-01-04T19:59:51.020Z,21.07
2023-01-04T20:02:19.322Z,20.67
2023-01-04T20:04:47.631Z,20.80
2023-01-04T20:07:15.677Z,22.27
2023-01-04T20:09:43.810Z,21.17
2023-01-04T20:12:11.947Z,21.43
2023-01-04T20:14:41.258Z,26.33
2023-01-04T20:17:09.708Z,21.13
2023-01-04T20:19:37.776Z,21.80
2023-01-04T20:22:05.904Z,21.87
2023-01-04T20:24:34.233Z,22.13
2023-01-04T20:27:02.493Z,22.53
2023-01-04T20:29:30.809Z,23.03
2023-01-04T20:32:00.839Z,21.97
2023-01-04T20:34:28.819Z,21.57
2023-01-04T20:36:56.705Z,23.10
2023-01-04T20:39:24.585Z,21.93
2023-01-04T20:42:09.884Z,23.93
2023-01-04T20:44:39.475Z,22.27
2023-01-04T20:47:08.845Z,22.13
2023-01-04T20:49:37.040Z,21.57
2023-01-04T20:52:06.781Z,21.93
2023-01-04T20:54:34.743Z,21.70
2023-01-04T20:57:02.677Z,21.07
2023-01-04T20:59:30.763Z,20.73
2023-01-04T21:01:58.818Z,20.90
2023-01-04T21:04:28.234Z,21.20
2023-01-04T21:06:56.165Z,23.23
2023-01-04T21:09:24.091Z,24.40
2023-01-04T21:11:51.980Z,19.67
2023-01-04T21:14:20.108Z,19.07
2023-01-04T21:16:49.416Z,19.87
2023-01-04T21:19:17.371Z,19.90
2023-01-04T21:21:46.736Z,20.63
2023-01-04T21:24:15.837Z,20.07
2023-01-04T21:26:46.307Z,19.97
2023-01-04T21:29:14.476Z,19.57
2023-01-04T21:31:44.923Z,20.07
2023-01-04T21:34:16.034Z,19.33
2023-01-04T21:36:49.790Z,19.37
2023-01-04T21:39:18.685Z,19.77
2023-01-04T21:41:51.299Z,19.90
2023-01-04T21:44:21.614Z,20.00
2023-01-04T21:46:49.777Z,20.47
2023-01-04T21:49:17.853Z,20.00
2023-01-04T21:51:49.030Z,19.97
2023-01-04T21:54:18.294Z,19.83
2023-01-04T21:56:46.646Z,19.47
2023-01-04T21:59:14.987Z,19.70
2023-01-04T22:01:44.770Z,19.70
2023-01-04T22:04:12.846Z,19.40
2023-01-04T22:06:41.838Z,20.13
2023-01-04T22:09:11.663Z,18.90
2023-01-04T22:11:40.941Z,18.93
2023-01-04T22:14:11.243Z,18.10
2023-01-04T22:16:39.234Z,17.60
2023-01-04T22:19:07.177Z,18.83
2023-01-04T22:21:35.046Z,17.33
2023-01-04T22:24:04.121Z,17.60
2023-01-04T22:26:34.340Z,18.53
2023-01-04T22:29:04.203Z,17.73
2023-01-04T22:31:34.402Z,17.63
2023-01-04T22:34:05.871Z,16.87
2023-01-04T22:36:33.776Z,18.80
2023-01-04T22:39:02.701Z,17.83
2023-01-04T22:41:30.578Z,17.33
2023-01-04T22:44:00.926Z,17.73
2023-01-04T22:46:29.900Z,17.67
2023-01-04T22:48:58.457Z,17.93
2023-01-04T22:51:27.584Z,17.80
2023-01-04T22:53:57.323Z,16.43
2023-01-04T22:59:29.900Z,18.00
2023-01-04T23:02:06.006Z,18.47
2023-01-04T23:04:36.537Z,18.20
2023-01-04T23:07:08.681Z,17.43
2023-01-04T23:09:36.536Z,17.67
2023-01-04T23:12:05.206Z,17.23
2023-01-04T23:14:34.413Z,17.47
2023-01-04T23:17:02.369Z,17.27
2023-01-04T23:19:30.689Z,17.67
2023-01-04T23:21:58.927Z,17.73
2023-01-04T23:24:27.375Z,16.90
2023-01-04T23:26:58.785Z,17.97
2023-01-04T23:29:29.349Z,18.00
2023-01-04T23:32:01.570Z,17.63
2023-01-04T23:34:30.467Z,18.07
2023-01-04T23:37:03.737Z,18.17
2023-01-04T23:39:31.654Z,19.23
2023-01-04T23:41:59.503Z,17.97
2023-01-04T23:44:31.019Z,18.23
2023-01-04T23:49:34.042Z,17.33
2023-01-04T23:52:03.165Z,18.57
2023-01-04T23:54:31.861Z,17.80
2023-01-04T23:57:03.001Z,18.87
2023-01-04T23:59:31.697Z,18.37
